createdAt,value
2018-04-15T00:01:57.766Z,12.50
2018-04-15T00:04:27.798Z,12.60
2018-04-15T00:06:57.814Z,12.60
2018-04-15T00:09:27.855Z,12.60
2018-04-15T00:11:57.905Z,12.60
2018-04-15T00:14:27.564Z,12.70
2018-04-15T00:16:57.578Z,12.70
2018-04-15T00:19:27.583Z,12.70
2018-04-15T00:21:57.596Z,12.80
2018-04-15T00:24:27.613Z,12.80
2018-04-15T00:26:57.626Z,12.80
2018-04-15T00:29:27.660Z,12.80
2018-04-15T00:31:57.686Z,12.70
2018-04-15T00:34:27.730Z,12.70
2018-04-15T00:36:58.497Z,12.70
2018-04-15T00:39:28.547Z,12.70
2018-04-15T00:41:58.689Z,12.70
2018-04-15T00:44:28.784Z,12.70
2018-04-15T00:46:58.457Z,12.70
2018-04-15T00:49:28.545Z,12.70
2018-04-15T00:51:58.208Z,12.70
2018-04-15T00:54:28.273Z,12.60
2018-04-15T00:56:59.220Z,12.70
2018-04-15T00:59:28.963Z,12.70
2018-04-15T01:01:59.016Z,12.80
2018-04-15T01:04:29.046Z,12.80
2018-04-15T01:06:59.097Z,12.70
2018-04-15T01:09:29.868Z,12.70
2018-04-15T01:11:59.888Z,12.70
2018-04-15T01:14:30.049Z,12.70
2018-04-15T01:17:00.842Z,12.80
2018-04-15T01:19:30.895Z,12.80
2018-04-15T01:22:00.954Z,12.80
2018-04-15T01:24:31.274Z,12.90
2018-04-15T01:27:01.303Z,12.90
2018-04-15T01:29:31.071Z,13.10
2018-04-15T01:32:00.789Z,13.20
2018-04-15T01:34:30.832Z,13.40
2018-04-15T01:37:00.644Z,13.60
2018-04-15T01:39:30.697Z,13.70
2018-04-15T01:42:00.713Z,13.90
2018-04-15T01:44:30.728Z,14.00
2018-04-15T01:47:00.823Z,14.10
2018-04-15T01:49:30.845Z,14.10
2018-04-15T01:52:00.921Z,14.20
2018-04-15T01:54:31.147Z,14.20
2018-04-15T01:57:01.169Z,14.30
2018-04-15T01:59:31.186Z,14.30
2018-04-15T02:02:01.207Z,14.30
2018-04-15T02:04:31.212Z,14.30
2018-04-15T02:07:01.346Z,14.30
2018-04-15T02:09:31.383Z,14.20
2018-04-15T02:12:01.045Z,14.30
2018-04-15T02:14:31.180Z,14.20
2018-04-15T02:17:00.820Z,14.20
2018-04-15T02:19:30.549Z,14.10
2018-04-15T02:22:00.608Z,14.10
2018-04-15T02:24:30.661Z,14.10
2018-04-15T02:27:00.713Z,14.10
2018-04-15T02:29:30.776Z,14.10
2018-04-15T02:32:00.433Z,14.10
2018-04-15T02:34:30.473Z,14.10
2018-04-15T02:37:00.510Z,14.10
2018-04-15T02:39:30.597Z,14.10
2018-04-15T02:42:00.706Z,14.00
2018-04-15T02:44:30.737Z,14.00
2018-04-15T02:47:00.781Z,14.00
2018-04-15T02:49:30.826Z,13.90
2018-04-15T02:52:00.886Z,13.90
2018-04-15T02:54:31.432Z,13.90
2018-04-15T02:57:01.497Z,13.80
2018-04-15T02:59:31.534Z,13.80
2018-04-15T03:02:01.639Z,13.80
2018-04-15T03:04:31.657Z,13.80
2018-04-15T03:07:01.765Z,13.80
2018-04-15T03:09:31.446Z,13.70
2018-04-15T03:12:01.519Z,13.70
2018-04-15T03:14:31.635Z,13.70
2018-04-15T03:17:01.705Z,13.60
2018-04-15T03:19:31.748Z,13.60
2018-04-15T03:22:01.440Z,13.50
2018-04-15T03:24:31.481Z,13.50
2018-04-15T03:27:01.214Z,13.50
2018-04-15T03:29:32.623Z,13.40
2018-04-15T03:32:04.181Z,13.40
2018-04-15T03:34:34.857Z,13.30
2018-04-15T03:37:06.636Z,13.30
2018-04-15T03:39:37.674Z,13.30
2018-04-15T03:42:09.569Z,13.30
2018-04-15T03:44:40.301Z,13.30
2018-04-15T03:47:10.373Z,13.20
2018-04-15T03:49:40.707Z,13.20
2018-04-15T03:52:10.866Z,13.20
2018-04-15T03:54:40.953Z,13.20
2018-04-15T03:57:11.059Z,13.10
2018-04-15T03:59:43.287Z,13.00
2018-04-15T04:02:13.363Z,13.00
2018-04-15T04:04:43.119Z,12.90
2018-04-15T04:07:13.289Z,13.00
2018-04-15T04:09:43.085Z,12.80
2018-04-15T04:12:13.229Z,12.90
2018-04-15T04:14:43.383Z,12.90
2018-04-15T04:17:13.501Z,13.00
2018-04-15T04:21:59.249Z,12.90
2018-04-15T04:25:43.677Z,12.90
2018-04-15T04:28:14.065Z,12.90
2018-04-15T04:30:44.261Z,12.90
2018-04-15T04:33:15.119Z,12.90
2018-04-15T04:35:45.298Z,12.90
2018-04-15T04:38:15.739Z,12.90
2018-04-15T04:40:46.501Z,12.90
2018-04-15T04:43:16.765Z,12.90
2018-04-15T04:45:46.449Z,12.90
2018-04-15T04:48:16.490Z,13.00
2018-04-15T04:50:46.514Z,13.00
2018-04-15T04:53:16.609Z,13.00
2018-04-15T04:55:46.731Z,13.00
2018-04-15T04:58:16.729Z,13.00
2018-04-15T05:00:46.773Z,13.00
2018-04-15T05:03:17.329Z,13.10
2018-04-15T05:05:48.154Z,13.10
2018-04-15T05:08:17.835Z,13.00
2018-04-15T05:10:47.945Z,13.10
2018-04-15T05:13:18.293Z,13.10
2018-04-15T05:15:48.340Z,13.10
2018-04-15T05:18:19.266Z,13.00
2018-04-15T05:20:49.292Z,13.00
2018-04-15T05:23:18.999Z,13.10
2018-04-15T05:25:48.655Z,13.10
2018-04-15T05:28:18.661Z,13.10
2018-04-15T05:30:48.283Z,13.10
2018-04-15T05:33:18.314Z,13.10
2018-04-15T05:35:48.014Z,13.10
2018-04-15T05:38:18.064Z,13.10
2018-04-15T05:40:47.309Z,13.10
2018-04-15T05:43:17.358Z,13.10
2018-04-15T05:45:47.110Z,13.00
2018-04-15T05:48:17.158Z,13.00
2018-04-15T05:50:47.157Z,13.10
2018-04-15T05:53:16.819Z,13.00
2018-04-15T05:55:46.849Z,13.10
2018-04-15T05:58:16.868Z,13.10
2018-04-15T06:00:47.689Z,13.20
2018-04-15T06:03:17.543Z,13.20
2018-04-15T06:05:47.569Z,13.20
2018-04-15T06:08:17.604Z,13.30
2018-04-15T06:10:47.645Z,13.40
2018-04-15T06:13:17.715Z,13.50
2018-04-15T06:15:47.757Z,13.50
2018-04-15T06:18:17.558Z,13.50
2018-04-15T06:20:47.684Z,13.60
2018-04-15T06:23:18.833Z,13.60
2018-04-15T06:25:51.540Z,13.60
2018-04-15T06:28:21.219Z,13.70
2018-04-15T06:30:52.026Z,13.70
2018-04-15T06:33:21.781Z,13.70
2018-04-15T06:35:51.890Z,13.70
2018-04-15T06:38:21.928Z,13.80
2018-04-15T06:40:51.989Z,13.90
2018-04-15T06:43:22.326Z,14.00
2018-04-15T06:45:51.970Z,14.00
2018-04-15T06:48:21.998Z,14.10
2018-04-15T06:50:52.026Z,14.30
2018-04-15T06:53:22.054Z,14.30
2018-04-15T06:55:52.472Z,14.40
2018-04-15T06:58:22.489Z,14.60
2018-04-15T07:00:52.508Z,14.80
2018-04-15T07:03:22.189Z,14.90
2018-04-15T07:05:52.313Z,14.90
2018-04-15T07:08:22.361Z,15.00
2018-04-15T07:10:52.421Z,15.10
2018-04-15T07:13:23.553Z,15.30
2018-04-15T07:15:53.281Z,15.40
2018-04-15T07:18:23.456Z,15.60
2018-04-15T07:20:53.516Z,15.80
2018-04-15T07:23:23.581Z,15.80
2018-04-15T07:25:53.631Z,15.90
2018-04-15T07:28:23.659Z,16.00
2018-04-15T07:30:53.715Z,16.10
2018-04-15T07:33:25.294Z,16.30
2018-04-15T07:35:55.000Z,16.40
2018-04-15T07:38:25.065Z,16.60
2018-04-15T07:40:55.110Z,17.10
2018-04-15T07:43:25.143Z,17.50
2018-04-15T07:45:55.185Z,18.20
2018-04-15T07:48:24.445Z,19.10
2018-04-15T07:50:53.701Z,19.90
2018-04-15T07:53:22.963Z,19.90
2018-04-15T07:55:53.016Z,21.30
2018-04-15T07:58:22.669Z,21.30
2018-04-15T08:00:52.370Z,22.10
2018-04-15T08:03:23.907Z,23.70
2018-04-15T08:05:54.625Z,23.60
2018-04-15T08:08:27.038Z,25.00
2018-04-15T08:10:57.236Z,26.60
2018-04-15T08:13:27.988Z,28.10
2018-04-15T08:16:00.721Z,28.10
2018-04-15T08:18:31.943Z,28.00
2018-04-15T08:21:02.542Z,28.10
2018-04-15T08:23:33.531Z,28.50
2018-04-15T08:26:04.794Z,28.70
2018-04-15T08:28:34.829Z,29.60
2018-04-15T08:31:04.470Z,29.90
2018-04-15T08:33:35.070Z,30.30
2018-04-15T08:36:04.525Z,30.80
2018-04-15T08:38:34.777Z,31.20
2018-04-15T08:41:04.840Z,31.80
2018-04-15T08:43:35.506Z,32.40
2018-04-15T08:46:05.338Z,32.70
2018-04-15T08:48:34.734Z,32.60
2018-04-15T08:51:04.276Z,32.60
2018-04-15T08:53:35.475Z,32.90
2018-04-15T08:56:12.276Z,33.50
2018-04-15T08:58:42.465Z,33.40
2018-04-15T09:01:11.909Z,33.40
2018-04-15T09:03:42.110Z,32.00
2018-04-15T09:06:12.983Z,33.50
2018-04-15T09:08:45.254Z,33.00
2018-04-15T09:11:17.029Z,32.80
2018-04-15T09:13:47.997Z,32.80
2018-04-15T09:16:21.425Z,32.90
2018-04-15T09:18:51.885Z,32.80
2018-04-15T09:21:21.949Z,32.80
2018-04-15T09:23:51.373Z,33.00
2018-04-15T09:26:23.859Z,33.20
2018-04-15T09:28:54.625Z,33.90
2018-04-15T09:31:25.909Z,34.20
2018-04-15T09:34:01.771Z,34.10
2018-04-15T09:36:31.981Z,33.30
2018-04-15T09:39:01.719Z,33.30
2018-04-15T09:41:31.140Z,33.00
2018-04-15T09:44:01.690Z,34.10
2018-04-15T09:46:31.135Z,34.10
2018-04-15T09:49:01.539Z,35.20
2018-04-15T09:51:31.508Z,35.10
2018-04-15T09:54:00.969Z,35.60
2018-04-15T09:56:31.215Z,35.00
2018-04-15T09:59:01.023Z,35.00
2018-04-15T10:01:30.482Z,33.90
2018-04-15T10:04:00.750Z,33.20
2018-04-15T10:06:31.208Z,33.20
2018-04-15T10:09:00.633Z,32.90
2018-04-15T10:11:30.086Z,32.40
2018-04-15T10:14:00.302Z,32.20
2018-04-15T10:16:30.119Z,31.90
2018-04-15T10:19:00.339Z,31.50
2018-04-15T10:21:30.661Z,31.20
2018-04-15T10:24:00.959Z,31.70
2018-04-15T10:26:31.231Z,30.80
2018-04-15T10:29:01.334Z,30.60
2018-04-15T10:31:31.509Z,30.30
2018-04-15T10:34:01.675Z,30.30
2018-04-15T10:36:33.207Z,30.40
2018-04-15T10:39:03.912Z,30.50
2018-04-15T10:41:34.001Z,29.90
2018-04-15T10:44:04.339Z,29.50
2018-04-15T10:46:34.735Z,29.80
2018-04-15T10:49:04.913Z,30.50
2018-04-15T10:51:35.005Z,30.90
2018-04-15T10:54:05.495Z,31.10
2018-04-15T10:56:35.744Z,31.40
2018-04-15T10:59:05.942Z,31.40
2018-04-15T11:01:39.767Z,31.30
2018-04-15T11:04:10.081Z,30.90
2018-04-15T11:06:40.362Z,30.20
2018-04-15T11:09:13.313Z,29.90
2018-04-15T11:11:43.413Z,30.10
2018-04-15T11:14:13.598Z,30.30
2018-04-15T11:16:45.294Z,30.20
2018-04-15T11:19:17.291Z,30.40
2018-04-15T11:21:48.529Z,30.30
2018-04-15T11:24:18.821Z,30.50
2018-04-15T11:26:49.920Z,30.30
2018-04-15T11:29:20.704Z,30.40
2018-04-15T11:31:51.309Z,30.60
2018-04-15T11:34:21.661Z,30.60
2018-04-15T11:36:52.914Z,30.40
2018-04-15T11:39:23.522Z,30.60
2018-04-15T11:41:53.732Z,30.90
2018-04-15T11:44:23.886Z,31.20
2018-04-15T11:46:53.705Z,31.20
2018-04-15T11:49:23.888Z,30.70
2018-04-15T11:51:54.147Z,30.10
2018-04-15T11:54:24.357Z,30.00
2018-04-15T11:56:54.641Z,30.10
2018-04-15T11:59:24.761Z,30.40
2018-04-15T12:01:54.629Z,30.50
2018-04-15T12:04:25.039Z,30.60
2018-04-15T12:06:55.276Z,30.50
2018-04-15T12:09:25.485Z,30.90
2018-04-15T12:11:55.724Z,30.80
2018-04-15T12:14:25.929Z,30.80
2018-04-15T12:16:56.162Z,30.90
2018-04-15T12:19:26.332Z,31.00
2018-04-15T12:21:56.910Z,30.90
2018-04-15T12:24:27.146Z,30.80
2018-04-15T12:26:57.351Z,30.60
2018-04-15T12:29:27.689Z,30.30
2018-04-15T12:31:58.250Z,29.90
2018-04-15T12:34:30.066Z,29.60
2018-04-15T12:37:00.791Z,29.30
2018-04-15T12:39:31.537Z,29.20
2018-04-15T12:42:03.122Z,29.20
2018-04-15T12:44:34.022Z,29.30
2018-04-15T12:47:04.985Z,29.40
2018-04-15T12:49:35.827Z,29.50
2018-04-15T12:52:06.149Z,29.60
2018-04-15T12:54:36.349Z,29.80
2018-04-15T12:57:06.478Z,29.60
2018-04-15T12:59:37.211Z,29.20
2018-04-15T13:02:07.697Z,29.00
2018-04-15T13:04:37.865Z,29.20
2018-04-15T13:07:08.234Z,29.50
2018-04-15T13:09:38.321Z,29.20
2018-04-15T13:12:08.457Z,28.90
2018-04-15T13:14:40.602Z,29.00
2018-04-15T13:17:10.401Z,29.10
2018-04-15T13:19:40.633Z,29.10
2018-04-15T13:22:10.786Z,28.70
2018-04-15T13:24:40.934Z,28.60
2018-04-15T13:27:10.997Z,28.30
2018-04-15T13:29:41.378Z,28.10
2018-04-15T13:32:11.538Z,27.80
2018-04-15T13:34:42.622Z,27.90
2018-04-15T13:37:13.013Z,28.00
2018-04-15T13:39:43.446Z,28.10
2018-04-15T13:42:15.317Z,28.00
2018-04-15T13:44:46.393Z,28.00
2018-04-15T13:47:17.961Z,28.20
2018-04-15T13:49:49.325Z,28.20
2018-04-15T13:52:21.050Z,27.90
2018-04-15T13:54:52.578Z,27.70
2018-04-15T13:57:22.896Z,30.60
2018-04-15T13:59:53.918Z,27.20
2018-04-15T14:02:25.084Z,26.70
2018-04-15T14:04:56.506Z,26.30
2018-04-15T14:07:27.573Z,25.80
2018-04-15T14:09:58.522Z,25.40
2018-04-15T14:12:29.397Z,25.50
2018-04-15T14:15:00.354Z,25.50
2018-04-15T14:17:31.656Z,25.50
2018-04-15T14:20:03.060Z,25.00
2018-04-15T14:22:36.239Z,25.20
2018-04-15T14:25:14.735Z,24.70
2018-04-15T14:27:46.335Z,24.60
2018-04-15T14:30:18.260Z,24.60
2018-04-15T14:32:48.535Z,24.50
2018-04-15T14:35:18.965Z,24.40
2018-04-15T14:37:49.180Z,24.20
2018-04-15T14:40:20.011Z,23.90
2018-04-15T14:42:50.507Z,23.60
2018-04-15T14:45:21.151Z,23.30
2018-04-15T14:47:51.759Z,23.10
2018-04-15T14:50:21.917Z,22.90
2018-04-15T14:52:52.481Z,22.80
2018-04-15T14:55:22.890Z,22.80
2018-04-15T14:57:53.521Z,22.90
2018-04-15T15:00:24.882Z,23.10
2018-04-15T15:02:55.630Z,23.20
2018-04-15T15:05:27.665Z,23.10
2018-04-15T15:07:59.640Z,23.20
2018-04-15T15:10:31.165Z,23.20
2018-04-15T15:13:02.103Z,23.20
2018-04-15T15:15:32.951Z,23.30
2018-04-15T15:18:03.881Z,23.60
2018-04-15T15:20:34.706Z,24.00
2018-04-15T15:23:08.417Z,24.10
2018-04-15T15:25:39.868Z,24.30
2018-04-15T15:28:11.439Z,24.40
2018-04-15T15:30:42.481Z,24.20
2018-04-15T15:33:14.650Z,23.90
2018-04-15T15:35:52.549Z,23.60
2018-04-15T15:38:24.232Z,23.20
2018-04-15T15:40:55.390Z,23.10
2018-04-15T15:43:28.841Z,23.00
2018-04-15T15:46:15.697Z,22.90
2018-04-15T15:48:48.257Z,22.90
2018-04-15T15:51:19.366Z,22.90
2018-04-15T15:53:50.876Z,24.70
2018-04-15T15:56:21.859Z,23.00
2018-04-15T15:58:52.907Z,22.90
2018-04-15T16:01:24.889Z,22.70
2018-04-15T16:03:55.452Z,22.70
2018-04-15T16:06:39.504Z,22.60
2018-04-15T16:09:09.967Z,22.60
2018-04-15T16:11:41.011Z,22.60
2018-04-15T16:14:11.853Z,22.50
2018-04-15T16:16:43.142Z,22.50
2018-04-15T16:19:15.368Z,22.30
2018-04-15T16:21:46.934Z,22.30
2018-04-15T16:24:18.676Z,22.30
2018-04-15T16:26:49.410Z,22.20
2018-04-15T16:29:20.447Z,22.20
2018-04-15T16:31:51.161Z,22.10
2018-04-15T16:34:21.485Z,21.90
2018-04-15T16:36:51.643Z,22.00
2018-04-15T16:39:22.758Z,21.80
2018-04-15T16:41:52.617Z,21.80
2018-04-15T16:44:28.781Z,21.90
2018-04-15T16:46:59.296Z,21.90
2018-04-15T16:49:29.629Z,21.70
2018-04-15T16:52:01.182Z,21.70
2018-04-15T16:54:31.406Z,21.70
2018-04-15T16:57:01.621Z,21.70
2018-04-15T16:59:31.440Z,21.70
2018-04-15T17:02:01.557Z,21.80
2018-04-15T17:04:31.691Z,21.50
2018-04-15T17:07:01.861Z,21.70
2018-04-15T17:09:32.038Z,21.60
2018-04-15T17:12:02.247Z,21.50
2018-04-15T17:14:32.464Z,21.40
2018-04-15T17:17:03.923Z,21.10
2018-04-15T17:19:34.250Z,21.00
2018-04-15T17:22:04.370Z,21.00
2018-04-15T17:24:34.179Z,20.90
2018-04-15T17:27:04.296Z,20.90
2018-04-15T17:29:34.420Z,20.90
2018-04-15T17:32:04.536Z,22.90
2018-04-15T17:34:34.659Z,20.80
2018-04-15T17:37:04.727Z,20.70
2018-04-15T17:39:34.907Z,20.70
2018-04-15T17:42:05.071Z,20.60
2018-04-15T17:44:37.395Z,20.80
2018-04-15T17:47:11.011Z,20.40
2018-04-15T17:49:41.318Z,17.70
2018-04-15T17:52:11.544Z,20.40
2018-04-15T17:54:41.661Z,20.40
2018-04-15T17:57:11.885Z,20.30
2018-04-15T17:59:42.163Z,20.10
2018-04-15T18:02:12.633Z,19.90
2018-04-15T18:04:42.826Z,19.90
2018-04-15T18:07:13.278Z,19.80
2018-04-15T18:09:43.509Z,19.60
2018-04-15T18:12:13.658Z,19.70
2018-04-15T18:14:43.845Z,19.60
2018-04-15T18:17:14.077Z,19.40
2018-04-15T18:19:44.218Z,19.50
2018-04-15T18:22:14.361Z,19.40
2018-04-15T18:24:44.556Z,19.30
2018-04-15T18:27:14.355Z,19.20
2018-04-15T18:29:44.266Z,19.00
2018-04-15T18:32:14.477Z,19.00
2018-04-15T18:34:44.707Z,18.90
2018-04-15T18:37:14.893Z,18.60
2018-04-15T18:39:45.049Z,18.70
2018-04-15T18:42:15.284Z,18.70
2018-04-15T18:44:45.430Z,18.40
2018-04-15T18:47:15.517Z,18.50
2018-04-15T18:49:45.725Z,18.30
2018-04-15T18:52:15.866Z,18.40
2018-04-15T18:54:46.186Z,18.40
2018-04-15T18:57:16.122Z,18.30
2018-04-15T18:59:46.382Z,18.20
2018-04-15T19:02:16.883Z,18.40
2018-04-15T19:04:47.086Z,18.40
2018-04-15T19:07:17.354Z,18.40
2018-04-15T19:09:47.700Z,18.30
2018-04-15T19:12:18.388Z,18.30
2018-04-15T19:14:48.527Z,18.30
2018-04-15T19:17:18.475Z,18.30
2018-04-15T19:19:48.743Z,18.20
2018-04-15T19:22:18.926Z,17.90
2018-04-15T19:24:48.788Z,17.80
2018-04-15T19:27:19.193Z,17.50
2018-04-15T19:29:49.397Z,17.20
2018-04-15T19:32:20.397Z,17.10
2018-04-15T19:34:50.485Z,17.00
2018-04-15T19:37:20.582Z,16.90
2018-04-15T19:39:50.728Z,16.70
2018-04-15T19:42:20.821Z,16.80
2018-04-15T19:44:50.937Z,16.80
2018-04-15T19:47:21.270Z,16.80
2018-04-15T19:49:51.403Z,16.70
2018-04-15T19:52:21.522Z,16.50
2018-04-15T19:54:51.729Z,16.50
2018-04-15T19:57:21.947Z,16.40
2018-04-15T19:59:52.257Z,16.20
2018-04-15T20:02:22.756Z,16.10
2018-04-15T20:04:53.333Z,16.10
2018-04-15T20:07:23.855Z,16.00
2018-04-15T20:09:54.138Z,16.00
2018-04-15T20:12:24.319Z,15.90
2018-04-15T20:14:54.212Z,15.90
2018-04-15T20:17:24.355Z,15.90
2018-04-15T20:19:54.565Z,15.80
2018-04-15T20:22:24.745Z,15.70
2018-04-15T20:24:54.917Z,15.80
2018-04-15T20:27:25.171Z,14.60
2018-04-15T20:29:55.308Z,15.80
2018-04-15T20:32:25.424Z,15.60
2018-04-15T20:34:55.595Z,16.00
2018-04-15T20:37:25.817Z,15.80
2018-04-15T20:39:56.041Z,15.50
2018-04-15T20:42:26.265Z,15.40
2018-04-15T20:44:56.479Z,16.80
2018-04-15T20:47:26.709Z,15.30
2018-04-15T20:49:56.825Z,15.20
2018-04-15T20:52:26.948Z,15.30
2018-04-15T20:54:57.165Z,15.20
2018-04-15T20:57:27.448Z,15.80
2018-04-15T20:59:57.565Z,15.10
2018-04-15T21:02:27.328Z,15.20
2018-04-15T21:04:57.602Z,15.30
2018-04-15T21:07:27.363Z,15.30
2018-04-15T21:09:57.436Z,15.40
2018-04-15T21:12:27.551Z,15.40
2018-04-15T21:14:57.677Z,15.40
2018-04-15T21:17:27.750Z,15.40
2018-04-15T21:19:57.873Z,15.60
2018-04-15T21:22:27.978Z,15.50
2018-04-15T21:24:58.117Z,15.40
2018-04-15T21:27:28.271Z,15.50
2018-04-15T21:29:58.414Z,15.50
2018-04-15T21:32:28.660Z,15.50
2018-04-15T21:34:58.849Z,14.00
2018-04-15T21:37:29.333Z,15.50
2018-04-15T21:39:59.505Z,15.30
2018-04-15T21:42:29.410Z,15.50
2018-04-15T21:44:59.113Z,15.40
2018-04-15T21:47:28.875Z,15.40
2018-04-15T21:49:59.169Z,15.30
2018-04-15T21:52:29.413Z,15.30
2018-04-15T21:54:59.538Z,15.20
2018-04-15T21:57:29.764Z,15.10
2018-04-15T22:00:00.037Z,15.00
2018-04-15T22:02:30.454Z,14.90
2018-04-15T22:05:00.696Z,15.00
2018-04-15T22:07:31.261Z,14.90
2018-04-15T22:10:01.426Z,14.90
2018-04-15T22:12:31.299Z,14.80
2018-04-15T22:15:01.525Z,14.70
2018-04-15T22:17:31.293Z,14.60
2018-04-15T22:20:02.841Z,14.60
2018-04-15T22:22:33.005Z,14.80
2018-04-15T22:25:03.540Z,14.90
2018-04-15T22:27:34.997Z,14.80
2018-04-15T22:30:05.322Z,14.80
2018-04-15T22:32:35.657Z,14.80
2018-04-15T22:35:06.377Z,14.80
2018-04-15T22:37:38.053Z,14.80
2018-04-15T22:40:07.845Z,14.80
2018-04-15T22:42:38.594Z,14.90
2018-04-15T22:45:09.374Z,14.90
2018-04-15T22:47:44.943Z,14.90
2018-04-15T22:50:18.059Z,14.90
2018-04-15T22:52:47.958Z,15.00
2018-04-15T22:55:18.197Z,14.90
2018-04-15T22:57:48.614Z,14.90
2018-04-15T23:00:19.382Z,14.90
2018-04-15T23:02:51.514Z,14.70
2018-04-15T23:05:21.751Z,14.80
2018-04-15T23:07:52.577Z,14.70
2018-04-15T23:10:23.641Z,14.60
2018-04-15T23:12:54.866Z,14.60
2018-04-15T23:15:24.290Z,14.50
2018-04-15T23:17:54.449Z,14.40
2018-04-15T23:20:24.797Z,14.30
2018-04-15T23:22:55.661Z,14.20
2018-04-15T23:25:26.419Z,14.20
2018-04-15T23:27:56.924Z,14.10
2018-04-15T23:30:27.148Z,14.10
2018-04-15T23:32:58.603Z,14.00
2018-04-15T23:35:28.001Z,14.00
2018-04-15T23:37:59.390Z,13.90
2018-04-15T23:40:30.188Z,13.70
2018-04-15T23:43:00.100Z,13.70
2018-04-15T23:45:29.814Z,13.70
2018-04-15T23:47:59.761Z,13.60
2018-04-15T23:50:29.961Z,13.50
2018-04-15T23:53:01.826Z,13.50
2018-04-15T23:55:32.289Z,13.40
2018-04-15T23:58:02.425Z,13.30
